Time;durP1;ratioP1;P1;durP2;ratioP2;P2;SDS_P1;SDS_P2;PMS_P1;PMS_P2;Temp;Humidity;BMP_temperature;BMP_pressure;BME280_temperature;BME280_humidity;BME280_pressure;Samples;Min_cycle;Max_cycle;Signal;HPM_P1;HPM_P2
2021/10/21 00:00:59;;;;;;;4.50;2.17;;;14.10;94.40;;;;;;2057640;28;20596;-91
2021/10/21 00:02:00;;;;;;;5.47;2.50;;;14.10;94.50;;;;;;2065460;28;20046;-91
2021/10/21 00:03:01;;;;;;;4.50;2.38;;;14.10;94.50;;;;;;2057759;28;20543;-91
2021/10/21 00:04:02;;;;;;;3.50;2.10;;;14.10;94.50;;;;;;2057719;28;20454;-90
2021/10/21 00:05:04;;;;;;;3.88;2.45;;;14.10;94.50;;;;;;2057414;28;20098;-91
2021/10/21 00:06:05;;;;;;;4.57;2.30;;;14.20;94.50;;;;;;2057678;28;20061;-90
2021/10/21 00:07:05;;;;;;;4.18;2.30;;;14.10;94.50;;;;;;2049305;28;20050;-90
2021/10/21 00:08:06;;;;;;;4.72;2.42;;;14.10;94.50;;;;;;2054633;28;20031;-90
2021/10/21 00:09:07;;;;;;;4.05;2.33;;;14.10;94.50;;;;;;2057199;28;20039;-90
2021/10/21 00:10:09;;;;;;;5.53;2.47;;;14.20;94.50;;;;;;2057434;28;20102;-90
2021/10/21 00:11:11;;;;;;;4.68;2.28;;;14.20;94.50;;;;;;2049330;29;20066;-90
2021/10/21 00:12:11;;;;;;;4.72;2.60;;;14.20;94.50;;;;;;2049715;28;20027;-91
2021/10/21 00:13:12;;;;;;;4.93;2.70;;;14.10;94.50;;;;;;2060768;28;20042;-90
2021/10/21 00:14:13;;;;;;;6.00;2.88;;;14.20;94.50;;;;;;2057101;28;20041;-92
2021/10/21 00:15:14;;;;;;;5.65;3.15;;;14.20;94.50;;;;;;2041317;28;20058;-91
2021/10/21 00:16:14;;;;;;;4.90;2.63;;;14.20;94.50;;;;;;2033734;29;20037;-90
2021/10/21 00:17:15;;;;;;;7.65;3.13;;;14.20;94.50;;;;;;2041599;29;20067;-90
2021/10/21 00:18:16;;;;;;;5.05;2.70;;;14.20;94.50;;;;;;2041369;29;20047;-91
2021/10/21 00:19:17;;;;;;;5.15;3.00;;;14.20;94.50;;;;;;2057496;28;20027;-92
2021/10/21 00:20:18;;;;;;;5.90;2.97;;;14.20;94.50;;;;;;2041504;29;20055;-91
2021/10/21 00:21:19;;;;;;;6.75;3.15;;;14.20;94.50;;;;;;2049443;28;20038;-91
2021/10/21 00:22:20;;;;;;;6.45;3.17;;;14.20;94.50;;;;;;2057411;28;20065;-90
2021/10/21 00:23:21;;;;;;;5.85;3.33;;;14.20;94.50;;;;;;2049390;28;20130;-90
2021/10/21 00:24:21;;;;;;;6.57;3.20;;;14.20;94.50;;;;;;2049474;29;20134;-92
2021/10/21 00:25:22;;;;;;;6.40;3.08;;;14.30;94.60;;;;;;2041592;29;20036;-90
2021/10/21 00:26:23;;;;;;;5.45;2.97;;;14.20;94.50;;;;;;2033626;29;20494;-90
2021/10/21 00:27:23;;;;;;;5.82;3.28;;;14.20;94.50;;;;;;2041577;29;20039;-94
2021/10/21 00:28:24;;;;;;;6.28;3.40;;;14.30;94.90;;;;;;2041482;28;20099;-93
2021/10/21 00:29:25;;;;;;;6.07;3.20;;;14.20;94.50;;;;;;2034841;29;20518;-93
2021/10/21 00:30:26;;;;;;;5.40;2.95;;;14.20;94.50;;;;;;2041559;28;20040;-93
2021/10/21 00:31:26;;;;;;;5.03;2.85;;;14.20;94.50;;;;;;2049339;28;20118;-93
2021/10/21 00:32:27;;;;;;;4.18;2.30;;;14.20;94.50;;;;;;2057112;28;20046;-93
2021/10/21 00:33:28;;;;;;;5.68;2.80;;;14.20;94.50;;;;;;2041385;29;20074;-92
2021/10/21 00:34:29;;;;;;;4.03;2.28;;;14.20;94.50;;;;;;2033641;29;20466;-92
2021/10/21 00:35:29;;;;;;;3.70;2.20;;;14.10;94.50;;;;;;2049266;28;20078;-92
2021/10/21 00:36:31;;;;;;;4.10;2.10;;;14.10;94.50;;;;;;2041244;29;20032;-91
2021/10/21 00:37:31;;;;;;;3.25;2.00;;;14.10;94.50;;;;;;2033825;29;20099;-92
2021/10/21 00:38:32;;;;;;;4.03;1.95;;;14.10;94.60;;;;;;2041581;29;20126;-93
2021/10/21 00:39:33;;;;;;;6.25;2.05;;;14.10;94.60;;;;;;2049446;28;20075;-93
2021/10/21 00:40:33;;;;;;;4.18;2.20;;;14.10;94.60;;;;;;2041658;29;20123;-92
2021/10/21 00:41:34;;;;;;;3.40;2.30;;;14.10;94.70;;;;;;2041485;29;20560;-93
2021/10/21 00:42:35;;;;;;;4.05;2.28;;;14.10;94.70;;;;;;2033496;29;20075;-91
2021/10/21 00:43:36;;;;;;;4.47;2.30;;;14.10;94.70;;;;;;2033656;29;20050;-92
2021/10/21 00:44:37;;;;;;;5.25;2.45;;;14.10;94.70;;;;;;2041476;29;20032;-91
2021/10/21 00:45:38;;;;;;;5.63;2.33;;;14.10;94.70;;;;;;2041590;29;20036;-92
2021/10/21 00:46:39;;;;;;;4.63;2.40;;;14.10;94.70;;;;;;2047240;28;20035;-93
2021/10/21 00:47:40;;;;;;;4.55;2.30;;;14.10;94.70;;;;;;2057453;28;20066;-91
2021/10/21 00:48:41;;;;;;;4.45;2.20;;;14.10;94.70;;;;;;2065250;28;20050;-92
2021/10/21 00:49:42;;;;;;;4.20;2.20;;;14.20;94.70;;;;;;2050852;28;20039;-92
2021/10/21 00:50:43;;;;;;;5.55;2.90;;;14.20;94.70;;;;;;2051474;29;20028;-91
2021/10/21 00:51:44;;;;;;;3.58;2.08;;;14.10;94.70;;;;;;2059989;28;20130;-92
2021/10/21 00:52:44;;;;;;;4.30;2.60;;;14.20;94.70;;;;;;2049125;28;20050;-90
2021/10/21 00:53:45;;;;;;;4.75;2.65;;;14.10;94.70;;;;;;2033806;29;20036;-91
2021/10/21 00:54:46;;;;;;;6.38;3.03;;;14.20;94.80;;;;;;2041500;29;20062;-91
2021/10/21 00:55:47;;;;;;;4.68;2.80;;;14.20;94.70;;;;;;2049454;28;20186;-95
2021/10/21 00:56:50;;;;;;;5.88;2.58;;;14.20;94.70;;;;;;2038382;29;20036;-91
2021/10/21 00:57:51;;;;;;;6.90;2.85;;;14.20;94.80;;;;;;2049021;28;20071;-91
2021/10/21 00:58:53;;;;;;;5.78;2.67;;;14.20;94.70;;;;;;2041032;29;20036;-91
2021/10/21 00:59:54;;;;;;;6.03;3.00;;;14.20;94.80;;;;;;2041418;28;20032;-91
2021/10/21 01:00:55;;;;;;;5.82;2.97;;;14.20;94.70;;;;;;2057215;29;20066;-91
2021/10/21 01:01:57;;;;;;;5.82;3.17;;;14.20;94.70;;;;;;2041448;29;20064;-92
2021/10/21 01:02:58;;;;;;;5.38;2.83;;;14.20;94.70;;;;;;2033441;29;20033;-91
2021/10/21 01:03:58;;;;;;;4.90;2.80;;;14.20;94.70;;;;;;2040864;29;20036;-91
2021/10/21 01:05:00;;;;;;;6.57;3.05;;;14.20;94.70;;;;;;2040655;29;20036;-91
2021/10/21 01:06:00;;;;;;;6.18;2.90;;;14.20;94.70;;;;;;2048284;28;20032;-91
2021/10/21 01:07:02;;;;;;;4.50;2.67;;;14.20;94.60;;;;;;2056200;28;20053;-91
2021/10/21 01:08:03;;;;;;;4.60;2.75;;;14.20;94.60;;;;;;2058220;28;20039;-91
2021/10/21 01:09:04;;;;;;;4.32;2.58;;;14.20;94.60;;;;;;2056233;29;20063;-91
2021/10/21 01:10:07;;;;;;;4.93;2.58;;;14.20;94.60;;;;;;2056497;28;20039;-91
2021/10/21 01:11:08;;;;;;;6.15;2.78;;;14.20;94.60;;;;;;2055959;28;20035;-91
2021/10/21 01:12:11;;;;;;;5.57;2.63;;;14.20;94.50;;;;;;2064059;28;20029;-91
2021/10/21 01:13:12;;;;;;;5.25;2.42;;;14.10;94.50;;;;;;2061422;28;20073;-91
2021/10/21 01:14:13;;;;;;;5.25;2.53;;;14.10;94.50;;;;;;2049534;28;20035;-91
2021/10/21 01:15:21;;;;;;;5.35;2.47;;;14.10;94.40;;;;;;2033868;29;20425;-92
2021/10/21 01:16:22;;;;;;;5.95;3.00;;;14.10;94.40;;;;;;2044706;28;20122;-91
2021/10/21 01:17:23;;;;;;;5.00;2.45;;;14.10;94.30;;;;;;2057575;28;20059;-92
2021/10/21 01:18:24;;;;;;;4.10;2.30;;;14.10;94.30;;;;;;2055884;28;20504;-92
2021/10/21 01:19:25;;;;;;;4.72;2.20;;;14.10;94.20;;;;;;2041446;28;20036;-92
2021/10/21 01:20:27;;;;;;;5.03;2.20;;;14.10;94.10;;;;;;2050639;28;20078;-93
2021/10/21 01:21:28;;;;;;;4.43;2.10;;;14.10;94.00;;;;;;2066994;28;20030;-92
2021/10/21 01:22:28;;;;;;;4.72;1.92;;;14.00;93.90;;;;;;2058111;28;20038;-92
2021/10/21 01:23:29;;;;;;;3.42;1.80;;;14.00;93.90;;;;;;2043185;29;20040;-92
2021/10/21 01:24:29;;;;;;;3.95;1.65;;;14.00;93.80;;;;;;2035151;29;20036;-91
2021/10/21 01:25:30;;;;;;;3.72;1.80;;;13.90;93.70;;;;;;2051097;29;20083;-91
2021/10/21 01:26:31;;;;;;;4.22;1.83;;;14.00;93.70;;;;;;2052350;28;20039;-91
2021/10/21 01:27:32;;;;;;;4.30;1.70;;;13.90;93.60;;;;;;2055441;28;20035;-90
2021/10/21 01:28:32;;;;;;;3.63;1.50;;;13.90;93.50;;;;;;2048378;29;20079;-90
2021/10/21 01:29:34;;;;;;;3.97;1.80;;;13.90;93.40;;;;;;2048093;29;20118;-91
2021/10/21 01:30:35;;;;;;;4.60;1.60;;;13.90;93.40;;;;;;2047016;29;20035;-91
2021/10/21 01:31:38;;;;;;;4.28;1.52;;;13.90;93.30;;;;;;2046152;29;20043;-90
2021/10/21 01:32:39;;;;;;;4.63;1.45;;;13.80;93.20;;;;;;2047714;29;20122;-90
2021/10/21 01:33:40;;;;;;;2.78;1.40;;;13.80;93.10;;;;;;2055847;28;20036;-91
2021/10/21 01:34:40;;;;;;;3.38;1.52;;;13.80;93.10;;;;;;2047570;29;20075;-91
2021/10/21 01:35:41;;;;;;;4.03;1.63;;;13.80;93.00;;;;;;2042902;29;20564;-91
2021/10/21 01:36:47;;;;;;;4.60;1.65;;;13.80;93.00;;;;;;2058760;28;20404;-91
2021/10/21 01:37:48;;;;;;;4.95;1.40;;;13.80;92.80;;;;;;2059013;28;20041;-91
2021/10/21 01:38:49;;;;;;;3.35;1.30;;;13.80;92.70;;;;;;2042719;29;20155;-91
2021/10/21 01:39:50;;;;;;;2.17;1.17;;;13.80;92.70;;;;;;2050195;28;20066;-93
2021/10/21 01:40:52;;;;;;;3.72;1.15;;;13.80;92.70;;;;;;2050742;28;20099;-91
2021/10/21 01:41:58;;;;;;;3.47;1.77;;;13.80;92.70;;;;;;2058967;28;20434;-91
2021/10/21 01:42:59;;;;;;;3.20;1.40;;;13.80;92.60;;;;;;2066627;28;20031;-90
2021/10/21 01:44:19;;;;;;;2.40;1.30;;;13.80;92.50;;;;;;2058562;28;20125;-91
2021/10/21 01:45:29;;;;;;;4.10;1.30;;;13.70;92.40;;;;;;2058582;28;20042;-91
2021/10/21 01:46:30;;;;;;;3.90;1.50;;;13.70;92.40;;;;;;2051789;28;20074;-91
2021/10/21 01:47:32;;;;;;;2.08;0.90;;;13.60;92.40;;;;;;2042409;29;20031;-92
2021/10/21 01:48:32;;;;;;;2.67;1.20;;;13.60;92.40;;;;;;2042854;29;20350;-92
2021/10/21 01:49:33;;;;;;;3.17;1.10;;;13.50;92.50;;;;;;2034868;29;20048;-92
2021/10/21 01:50:34;;;;;;;3.58;1.10;;;13.40;92.60;;;;;;2027308;29;20041;-91
2021/10/21 01:51:35;;;;;;;1.85;0.80;;;13.30;92.50;;;;;;2043330;29;20028;-91
2021/10/21 01:52:36;;;;;;;2.75;0.90;;;13.20;92.50;;;;;;2059674;28;20042;-90
2021/10/21 01:53:36;;;;;;;3.22;0.70;;;13.20;92.50;;;;;;2058592;28;20081;-91
2021/10/21 01:54:37;;;;;;;2.00;0.50;;;13.10;92.40;;;;;;2050497;28;20098;-92
2021/10/21 01:55:39;;;;;;;1.90;0.50;;;13.00;92.50;;;;;;2035234;29;20047;-91
2021/10/21 01:56:39;;;;;;;3.05;0.80;;;12.90;92.50;;;;;;2042769;28;20039;-92
2021/10/21 01:57:40;;;;;;;2.15;0.70;;;12.80;92.50;;;;;;2034925;29;20040;-91
2021/10/21 01:58:41;;;;;;;2.85;0.65;;;12.80;92.60;;;;;;2034808;28;20047;-91
2021/10/21 01:59:42;;;;;;;2.03;0.50;;;12.70;92.50;;;;;;2034646;29;20040;-90
2021/10/21 02:00:42;;;;;;;1.48;0.43;;;12.70;92.60;;;;;;2042700;29;20038;-91
2021/10/21 02:01:43;;;;;;;1.17;0.55;;;12.60;92.50;;;;;;2042731;29;20031;-90
2021/10/21 02:02:45;;;;;;;1.13;0.35;;;12.60;92.60;;;;;;2034759;29;20577;-91
2021/10/21 02:03:46;;;;;;;1.10;0.30;;;12.60;92.70;;;;;;2043187;28;20043;-92
2021/10/21 02:04:46;;;;;;;2.22;0.73;;;12.50;92.70;;;;;;2060277;28;20043;-91
2021/10/21 02:05:47;;;;;;;1.33;0.40;;;12.50;92.70;;;;;;2042641;29;20508;-92
2021/10/21 02:06:48;;;;;;;1.35;0.50;;;12.40;92.80;;;;;;2026915;29;20128;-92
2021/10/21 02:07:48;;;;;;;1.95;0.60;;;12.40;92.80;;;;;;2034542;29;20036;-93
2021/10/21 02:08:49;;;;;;;1.48;0.50;;;12.40;92.80;;;;;;2056354;28;20094;-93
2021/10/21 02:09:50;;;;;;;2.08;0.68;;;12.30;92.80;;;;;;2050619;28;20035;-92
2021/10/21 02:10:50;;;;;;;1.70;0.60;;;12.30;92.80;;;;;;2050029;28;20090;-91
2021/10/21 02:11:51;;;;;;;1.90;0.70;;;12.30;92.80;;;;;;2042025;29;20135;-92
2021/10/21 02:12:52;;;;;;;1.73;0.52;;;12.30;92.90;;;;;;2042421;29;20024;-92
2021/10/21 02:13:52;;;;;;;2.30;0.57;;;12.20;92.90;;;;;;2050514;28;20046;-93
2021/10/21 02:14:53;;;;;;;4.28;0.60;;;12.20;92.90;;;;;;2042664;28;20123;-89
2021/10/21 02:15:54;;;;;;;2.55;0.80;;;12.20;92.90;;;;;;2050460;28;20047;-92
2021/10/21 02:16:54;;;;;;;2.47;0.63;;;12.10;92.90;;;;;;2042670;29;20035;-92
2021/10/21 02:17:55;;;;;;;2.90;0.70;;;12.10;92.90;;;;;;2050304;28;20498;-90
2021/10/21 02:18:56;;;;;;;2.33;0.63;;;12.10;92.90;;;;;;2058768;28;20031;-89
2021/10/21 02:19:56;;;;;;;2.55;0.80;;;12.10;92.90;;;;;;2050584;29;20442;-90
2021/10/21 02:20:57;;;;;;;1.98;0.50;;;12.10;93.00;;;;;;2042694;29;20036;-88
2021/10/21 02:21:58;;;;;;;1.65;0.60;;;12.00;93.00;;;;;;2042528;29;20406;-91
2021/10/21 02:22:58;;;;;;;1.73;0.47;;;12.00;93.00;;;;;;2050244;28;20041;-91
2021/10/21 02:23:59;;;;;;;1.48;0.55;;;12.10;93.10;;;;;;2042621;28;20043;-90
2021/10/21 02:25:00;;;;;;;1.65;0.65;;;12.00;93.10;;;;;;2042452;28;20092;-92
2021/10/21 02:26:01;;;;;;;1.30;0.50;;;12.00;93.10;;;;;;2050716;28;20095;-91
2021/10/21 02:27:01;;;;;;;1.73;0.50;;;12.00;93.10;;;;;;2058597;28;20547;-91
2021/10/21 02:28:02;;;;;;;1.15;0.40;;;12.00;93.10;;;;;;2052473;28;20126;-91
2021/10/21 02:29:03;;;;;;;1.40;0.50;;;12.00;93.10;;;;;;2050201;28;20074;-91
2021/10/21 02:30:06;;;;;;;1.65;0.60;;;12.00;93.10;;;;;;2050332;28;20038;-91
2021/10/21 02:31:07;;;;;;;1.70;0.57;;;12.00;93.10;;;;;;2050815;28;20058;-91
2021/10/21 02:32:08;;;;;;;2.05;0.63;;;12.00;93.10;;;;;;2041358;29;20032;-92
2021/10/21 02:33:08;;;;;;;4.70;0.77;;;12.00;93.10;;;;;;2034708;29;20044;-91
2021/10/21 02:34:09;;;;;;;2.03;0.80;;;12.00;93.40;;;;;;2026914;29;20040;-91
2021/10/21 02:35:11;;;;;;;1.13;0.50;;;12.00;93.10;;;;;;2042525;29;20036;-91
2021/10/21 02:36:12;;;;;;;7.57;0.70;;;11.90;93.10;;;;;;2050662;28;20039;-92
2021/10/21 02:37:13;;;;;;;1.38;0.43;;;12.00;93.20;;;;;;2042514;29;20084;-90
2021/10/21 02:38:14;;;;;;;0.93;0.40;;;12.00;93.20;;;;;;2034631;29;20081;-91
2021/10/21 02:39:15;;;;;;;1.45;0.40;;;12.00;93.20;;;;;;2042793;28;20039;-90
2021/10/21 02:40:15;;;;;;;2.17;0.50;;;12.00;93.10;;;;;;2051777;28;20110;-90
2021/10/21 02:41:16;;;;;;;1.75;0.50;;;12.00;93.10;;;;;;2044155;29;20518;-92
2021/10/21 02:42:17;;;;;;;1.35;0.50;;;12.00;93.10;;;;;;2027287;29;20113;-90
2021/10/21 02:43:18;;;;;;;2.55;0.65;;;12.00;93.10;;;;;;2028809;29;20040;-91
2021/10/21 02:44:18;;;;;;;1.92;0.60;;;12.00;93.00;;;;;;2043451;29;20542;-91
2021/10/21 02:45:19;;;;;;;2.92;0.50;;;12.00;93.00;;;;;;2058037;28;20117;-91
2021/10/21 02:46:19;;;;;;;2.60;0.50;;;12.10;92.90;;;;;;2058230;28;20051;-90
2021/10/21 02:47:20;;;;;;;1.85;0.55;;;12.10;92.90;;;;;;2050139;29;20466;-91
2021/10/21 02:48:21;;;;;;;2.28;0.60;;;12.10;92.80;;;;;;2042202;29;20032;-91
2021/10/21 02:49:21;;;;;;;1.92;0.43;;;12.10;92.80;;;;;;2050213;29;20043;-90
2021/10/21 02:50:23;;;;;;;1.00;0.47;;;12.10;92.70;;;;;;2058780;28;20035;-91
2021/10/21 02:51:24;;;;;;;3.47;0.60;;;12.10;92.70;;;;;;2067648;28;20121;-90
2021/10/21 02:52:25;;;;;;;1.77;0.40;;;12.10;92.60;;;;;;2051645;29;20521;-91
2021/10/21 02:53:25;;;;;;;4.93;0.60;;;12.10;92.50;;;;;;2043562;29;20031;-90
2021/10/21 02:54:26;;;;;;;2.95;0.80;;;12.20;92.40;;;;;;2051935;28;20110;-89
2021/10/21 02:55:27;;;;;;;3.65;0.50;;;12.20;92.40;;;;;;2052060;28;20042;-90
2021/10/21 02:56:27;;;;;;;3.53;0.60;;;12.20;92.30;;;;;;2043926;29;20040;-90
2021/10/21 02:57:28;;;;;;;3.50;0.50;;;12.20;92.20;;;;;;2060114;28;20539;-90
2021/10/21 02:58:29;;;;;;;2.22;0.60;;;12.20;92.10;;;;;;2051121;28;20043;-90
2021/10/21 02:59:30;;;;;;;3.60;0.60;;;12.20;92.10;;;;;;2050870;28;20074;-90
2021/10/21 03:00:30;;;;;;;3.88;0.47;;;12.20;92.10;;;;;;2051620;28;20038;-91
2021/10/21 03:01:31;;;;;;;3.42;0.60;;;12.30;92.10;;;;;;2043043;29;20103;-90
2021/10/21 03:02:32;;;;;;;2.28;0.85;;;12.20;92.00;;;;;;2043393;29;20158;-90
2021/10/21 03:03:32;;;;;;;8.43;0.47;;;12.30;92.00;;;;;;2058271;28;20039;-90
2021/10/21 03:04:34;;;;;;;3.10;0.40;;;12.30;92.00;;;;;;2050376;28;20047;-91
2021/10/21 03:05:34;;;;;;;4.07;0.55;;;12.30;92.00;;;;;;2042761;28;20221;-90
2021/10/21 03:06:37;;;;;;;1.70;0.50;;;12.30;91.90;;;;;;2058683;28;20039;-90
2021/10/21 03:07:37;;;;;;;2.95;0.60;;;12.30;91.90;;;;;;2066193;28;20038;-89
2021/10/21 03:08:38;;;;;;;4.07;0.70;;;12.30;91.90;;;;;;2058122;28;20133;-90
2021/10/21 03:09:39;;;;;;;2.50;0.60;;;12.30;91.80;;;;;;2050354;28;20078;-91
2021/10/21 03:10:39;;;;;;;6.05;0.80;;;12.30;91.70;;;;;;2042727;29;20043;-91
2021/10/21 03:11:40;;;;;;;3.88;0.60;;;12.30;91.60;;;;;;2042754;29;20066;-90
2021/10/21 03:12:41;;;;;;;2.20;0.40;;;12.30;91.50;;;;;;2042113;29;20095;-89
2021/10/21 03:13:42;;;;;;;3.47;0.52;;;12.40;91.60;;;;;;2034769;29;20107;-90
2021/10/21 03:14:42;;;;;;;4.38;0.50;;;12.40;91.50;;;;;;2042558;29;20127;-90
2021/10/21 03:15:45;;;;;;;2.00;0.45;;;12.40;91.40;;;;;;2050713;28;20047;-90
2021/10/21 03:16:46;;;;;;;2.70;0.50;;;12.40;91.50;;;;;;2050792;28;20031;-90
2021/10/21 03:17:47;;;;;;;3.15;0.52;;;12.40;91.40;;;;;;2058201;28;20038;-89
2021/10/21 03:18:47;;;;;;;4.43;0.90;;;12.40;91.40;;;;;;2050479;29;20036;-90
2021/10/21 03:19:48;;;;;;;4.88;0.50;;;12.40;91.40;;;;;;2049966;29;20428;-90
2021/10/21 03:20:49;;;;;;;2.35;0.55;;;12.40;91.40;;;;;;2042405;29;20038;-90
2021/10/21 03:21:50;;;;;;;2.50;0.50;;;12.40;91.40;;;;;;2042125;29;20103;-90
2021/10/21 03:22:51;;;;;;;2.33;0.50;;;12.40;91.40;;;;;;2034465;29;20096;-90
2021/10/21 03:23:52;;;;;;;2.40;0.68;;;12.40;91.50;;;;;;2042168;28;20143;-91
2021/10/21 03:24:52;;;;;;;4.03;0.95;;;12.40;91.50;;;;;;2050117;28;20054;-90
2021/10/21 03:25:54;;;;;;;4.15;0.60;;;12.30;91.60;;;;;;2050345;28;20035;-89
2021/10/21 03:26:55;;;;;;;2.72;0.63;;;12.30;91.60;;;;;;2058346;28;20039;-90
2021/10/21 03:27:57;;;;;;;4.25;0.50;;;12.30;91.70;;;;;;2058054;28;20066;-91
2021/10/21 03:28:58;;;;;;;2.47;0.45;;;12.30;91.70;;;;;;2050066;28;20039;-90
2021/10/21 03:29:58;;;;;;;2.15;0.52;;;12.20;91.80;;;;;;2042354;29;20514;-91
2021/10/21 03:30:59;;;;;;;2.60;0.52;;;12.20;91.80;;;;;;2042129;29;20090;-90
2021/10/21 03:32:00;;;;;;;1.55;0.30;;;12.20;91.90;;;;;;2049173;29;20401;-89
2021/10/21 03:33:00;;;;;;;3.72;0.50;;;12.20;91.90;;;;;;2057855;28;20101;-89
2021/10/21 03:34:01;;;;;;;2.17;0.38;;;12.20;92.00;;;;;;2050126;28;20046;-89
2021/10/21 03:35:02;;;;;;;2.80;0.50;;;12.20;92.00;;;;;;2050008;28;20035;-89
2021/10/21 03:36:03;;;;;;;2.55;0.57;;;12.10;92.10;;;;;;2049905;28;20509;-90
2021/10/21 03:37:04;;;;;;;2.38;0.43;;;12.10;92.10;;;;;;2049877;29;20032;-90
2021/10/21 03:38:05;;;;;;;2.83;0.50;;;12.10;92.10;;;;;;2049723;28;20043;-90
2021/10/21 03:39:06;;;;;;;2.20;0.30;;;12.10;92.20;;;;;;2042021;29;20035;-90
2021/10/21 03:40:08;;;;;;;1.38;0.30;;;12.10;92.30;;;;;;2049912;28;20039;-90
2021/10/21 03:41:09;;;;;;;3.53;0.40;;;12.10;92.30;;;;;;2050384;28;20035;-89
2021/10/21 03:42:10;;;;;;;2.75;0.43;;;12.10;92.30;;;;;;2058168;28;20493;-90
2021/10/21 03:43:10;;;;;;;2.38;0.60;;;12.10;92.40;;;;;;2042046;28;20502;-89
2021/10/21 03:44:11;;;;;;;3.17;0.60;;;12.10;92.40;;;;;;2042305;28;20514;-90
2021/10/21 03:45:12;;;;;;;1.58;0.47;;;12.10;92.40;;;;;;2042294;28;20383;-90
2021/10/21 03:46:12;;;;;;;2.97;0.50;;;12.10;92.40;;;;;;2049894;28;20398;-90
2021/10/21 03:47:13;;;;;;;2.55;0.47;;;12.00;92.40;;;;;;2049829;28;20494;-91
2021/10/21 03:48:14;;;;;;;1.48;0.40;;;12.10;92.50;;;;;;2041795;29;20044;-91
2021/10/21 03:49:14;;;;;;;2.40;0.50;;;12.10;92.50;;;;;;2037975;29;20401;-91
2021/10/21 03:50:16;;;;;;;3.15;0.55;;;12.00;92.50;;;;;;2042044;28;20130;-91
2021/10/21 03:51:16;;;;;;;2.58;0.47;;;12.00;92.50;;;;;;2049812;29;20055;-90
2021/10/21 03:52:18;;;;;;;2.35;0.60;;;12.00;92.60;;;;;;2026068;29;20047;-91
2021/10/21 03:53:19;;;;;;;1.52;0.50;;;12.00;92.60;;;;;;2042152;28;20040;-91
2021/10/21 03:54:20;;;;;;;2.53;0.60;;;12.00;92.60;;;;;;2049722;29;20490;-91
2021/10/21 03:55:21;;;;;;;2.72;0.50;;;12.00;92.60;;;;;;2057646;28;20034;-91
2021/10/21 03:56:21;;;;;;;1.63;0.50;;;12.00;92.60;;;;;;2041710;29;20478;-90
2021/10/21 03:57:22;;;;;;;3.25;0.50;;;12.00;92.60;;;;;;2041794;28;20509;-91
2021/10/21 03:58:23;;;;;;;1.67;0.50;;;12.00;92.70;;;;;;2041964;29;20486;-91
2021/10/21 03:59:24;;;;;;;7.80;0.70;;;12.00;92.60;;;;;;2033765;29;20464;-90
2021/10/21 04:00:24;;;;;;;3.72;0.60;;;12.00;92.60;;;;;;2033940;29;20492;-91
2021/10/21 04:01:25;;;;;;;3.35;0.60;;;12.00;92.60;;;;;;2034010;29;20055;-91
2021/10/21 04:02:25;;;;;;;1.95;0.50;;;12.00;92.60;;;;;;2033957;29;20044;-91
2021/10/21 04:03:26;;;;;;;2.78;0.60;;;12.00;92.60;;;;;;2026283;29;20087;-91
2021/10/21 04:04:27;;;;;;;2.30;0.45;;;12.00;92.70;;;;;;2026048;29;20051;-91
2021/10/21 04:05:28;;;;;;;3.53;0.70;;;12.00;92.60;;;;;;2028570;29;20047;-90
2021/10/21 04:06:28;;;;;;;3.58;0.77;;;12.00;92.60;;;;;;2026325;29;20041;-90
2021/10/21 04:07:29;;;;;;;4.70;0.68;;;12.10;92.70;;;;;;2033930;29;20035;-89
2021/10/21 04:08:30;;;;;;;0.98;0.43;;;12.00;92.60;;;;;;2040659;28;20138;-90
2021/10/21 04:09:31;;;;;;;2.53;0.80;;;12.00;92.60;;;;;;2041644;29;20107;-90
2021/10/21 04:10:31;;;;;;;0.70;0.40;;;12.10;92.70;;;;;;2041703;29;20446;-91
2021/10/21 04:11:32;;;;;;;1.83;0.43;;;12.10;92.90;;;;;;2049585;28;20067;-90
2021/10/21 04:12:33;;;;;;;2.30;0.60;;;12.00;92.70;;;;;;2057662;28;20030;-90
2021/10/21 04:13:34;;;;;;;2.13;0.50;;;12.00;92.70;;;;;;2057494;28;20039;-92
2021/10/21 04:14:34;;;;;;;3.13;0.45;;;12.00;92.70;;;;;;2049504;29;20038;-89
2021/10/21 04:15:35;;;;;;;2.33;0.50;;;12.00;92.70;;;;;;2057467;28;20043;-90
2021/10/21 04:16:35;;;;;;;1.65;0.30;;;12.00;92.70;;;;;;2053622;28;20130;-90
2021/10/21 04:17:37;;;;;;;2.45;0.68;;;12.00;92.70;;;;;;2056661;28;20151;-89
2021/10/21 04:18:37;;;;;;;2.78;0.50;;;12.00;92.80;;;;;;2058252;28;20039;-91
2021/10/21 04:19:38;;;;;;;1.95;0.45;;;12.00;92.80;;;;;;2065382;28;20520;-91
2021/10/21 04:20:39;;;;;;;2.38;0.50;;;12.00;92.80;;;;;;2065676;28;20058;-91
2021/10/21 04:21:39;;;;;;;1.00;0.40;;;12.00;92.80;;;;;;2081872;28;20033;-91
2021/10/21 04:22:40;;;;;;;2.60;0.50;;;11.90;92.80;;;;;;2080894;28;20033;-92
2021/10/21 04:23:41;;;;;;;3.20;0.60;;;11.90;92.80;;;;;;2073816;28;20049;-91
2021/10/21 04:24:42;;;;;;;2.08;0.40;;;11.90;92.90;;;;;;2057525;28;20038;-92
2021/10/21 04:25:44;;;;;;;2.22;0.50;;;11.90;93.00;;;;;;2042001;28;20454;-91
2021/10/21 04:26:45;;;;;;;2.95;0.80;;;11.90;93.00;;;;;;2057640;28;20078;-91
2021/10/21 04:27:45;;;;;;;3.33;0.50;;;11.80;93.00;;;;;;2049330;28;20043;-93
2021/10/21 04:28:46;;;;;;;4.72;0.60;;;11.90;93.10;;;;;;2057515;28;20046;-91
2021/10/21 04:29:47;;;;;;;3.28;0.63;;;11.90;93.10;;;;;;2065554;28;20042;-91
2021/10/21 04:30:47;;;;;;;3.28;0.50;;;11.80;93.10;;;;;;2057693;28;20518;-91
2021/10/21 04:31:48;;;;;;;4.35;0.70;;;11.80;93.10;;;;;;2065722;28;20038;-91
2021/10/21 04:32:49;;;;;;;1.77;0.45;;;11.80;93.20;;;;;;2065559;28;20041;-92
2021/10/21 04:33:49;;;;;;;2.05;0.52;;;11.80;93.20;;;;;;2049476;29;20042;-92
2021/10/21 04:34:50;;;;;;;1.65;0.40;;;11.80;93.20;;;;;;2049573;29;20031;-90
2021/10/21 04:35:51;;;;;;;1.70;0.40;;;11.70;93.20;;;;;;2057243;28;20051;-90
2021/10/21 04:36:52;;;;;;;2.45;0.47;;;11.80;93.30;;;;;;2049796;28;20039;-92
2021/10/21 04:37:52;;;;;;;2.83;0.57;;;11.80;93.30;;;;;;2049972;28;20560;-91
2021/10/21 04:38:53;;;;;;;2.42;0.50;;;11.70;93.30;;;;;;2049582;28;20374;-91
2021/10/21 04:39:54;;;;;;;2.97;0.70;;;11.80;93.40;;;;;;2057650;28;20043;-90
2021/10/21 04:40:54;;;;;;;2.38;0.50;;;11.80;93.60;;;;;;2054327;28;20065;-92
2021/10/21 04:41:55;;;;;;;1.05;0.32;;;11.70;93.30;;;;;;2065499;28;20057;-91
2021/10/21 04:42:56;;;;;;;3.47;0.57;;;11.70;93.40;;;;;;2065356;28;20081;-91
2021/10/21 04:43:57;;;;;;;2.53;0.50;;;11.80;93.40;;;;;;2057477;28;20086;-92
2021/10/21 04:44:57;;;;;;;2.50;0.65;;;11.70;93.40;;;;;;2049460;28;20168;-90
2021/10/21 04:45:58;;;;;;;2.28;0.40;;;11.80;93.40;;;;;;2049605;28;20126;-90
2021/10/21 04:47:00;;;;;;;3.08;0.50;;;11.80;93.40;;;;;;2057429;28;20038;-91
2021/10/21 04:48:00;;;;;;;2.63;0.73;;;11.70;93.40;;;;;;2065325;28;20046;-91
2021/10/21 04:49:01;;;;;;;2.28;0.50;;;11.70;93.40;;;;;;2057592;28;20121;-91
2021/10/21 04:50:03;;;;;;;2.53;0.45;;;11.80;93.50;;;;;;2057293;28;20037;-90
2021/10/21 04:51:06;;;;;;;2.50;0.50;;;11.70;93.50;;;;;;2057696;28;20054;-90
2021/10/21 04:52:07;;;;;;;3.33;0.60;;;11.80;93.50;;;;;;2066266;28;20050;-91
2021/10/21 04:53:08;;;;;;;2.00;0.40;;;11.80;93.50;;;;;;2064947;28;20046;-91
2021/10/21 04:54:09;;;;;;;3.03;0.50;;;11.70;93.50;;;;;;2041852;28;20145;-90
2021/10/21 04:55:10;;;;;;;1.65;0.40;;;11.70;93.50;;;;;;2050227;28;20047;-92
2021/10/21 04:56:11;;;;;;;1.33;0.45;;;11.70;93.60;;;;;;2059173;28;20035;-91
2021/10/21 04:57:12;;;;;;;4.00;0.50;;;11.80;93.60;;;;;;2059209;28;20043;-91
2021/10/21 04:58:13;;;;;;;3.13;0.50;;;11.80;93.60;;;;;;2059314;28;20035;-92
2021/10/21 04:59:13;;;;;;;4.78;0.55;;;11.80;93.60;;;;;;2059343;28;20035;-91
2021/10/21 05:00:16;;;;;;;2.38;0.40;;;11.80;93.60;;;;;;2067022;28;20039;-91
2021/10/21 05:01:17;;;;;;;2.72;0.50;;;11.80;93.60;;;;;;2067374;28;20034;-91
2021/10/21 05:02:17;;;;;;;4.63;0.80;;;11.80;93.60;;;;;;2059058;28;20055;-91
2021/10/21 05:03:18;;;;;;;1.42;0.30;;;11.80;93.60;;;;;;2059114;28;20066;-92
2021/10/21 05:04:19;;;;;;;2.25;0.55;;;11.80;93.60;;;;;;2051095;28;20070;-92
2021/10/21 05:05:20;;;;;;;3.00;0.63;;;11.80;93.60;;;;;;2067317;28;20042;-91
2021/10/21 05:06:20;;;;;;;3.20;0.50;;;11.80;93.60;;;;;;2067319;28;20484;-92
2021/10/21 05:07:21;;;;;;;3.95;0.73;;;11.80;93.60;;;;;;2059141;28;20043;-91
2021/10/21 05:08:22;;;;;;;2.20;0.45;;;11.80;93.70;;;;;;2035011;29;20043;-91
2021/10/21 05:09:22;;;;;;;1.70;0.60;;;11.80;93.70;;;;;;2043275;29;20569;-91
2021/10/21 05:10:23;;;;;;;1.38;0.38;;;11.80;93.70;;;;;;2050995;28;20035;-91
2021/10/21 05:11:24;;;;;;;4.80;0.70;;;11.80;93.70;;;;;;2050715;28;20039;-90
2021/10/21 05:12:25;;;;;;;3.08;0.60;;;11.80;93.70;;;;;;2051055;29;20031;-91
2021/10/21 05:13:25;;;;;;;2.30;0.47;;;11.80;93.70;;;;;;2043201;29;20095;-91
2021/10/21 05:14:26;;;;;;;2.88;0.50;;;11.80;93.70;;;;;;2042993;29;20051;-91
2021/10/21 05:15:28;;;;;;;2.00;0.50;;;11.80;93.70;;;;;;2043183;29;20497;-91
2021/10/21 05:16:29;;;;;;;2.25;0.50;;;11.80;93.70;;;;;;2051192;28;20039;-90
2021/10/21 05:17:29;;;;;;;1.88;0.45;;;11.80;93.70;;;;;;2051186;28;20063;-92
2021/10/21 05:18:30;;;;;;;3.35;0.60;;;11.70;93.70;;;;;;2050798;28;20039;-91